Time;durP1;ratioP1;P1;durP2;ratioP2;P2;SDS_P1;SDS_P2;PMS_P1;PMS_P2;Temp;Humidity;BMP_temperature;BMP_pressure;BME280_temperature;BME280_humidity;BME280_pressure;Samples;Min_cycle;Max_cycle;Signal;HPM_P1;HPM_P2
2023/06/16 00:01:22;;;;;;;0.10;0.10;;;17.80;99.90;;;;;;5048789;28;20268;-80
2023/06/16 00:03:49;;;;;;;0.10;0.10;;;17.80;99.90;;;;;;5048118;28;20239;-80
2023/06/16 00:06:15;;;;;;;0.10;0.10;;;17.80;99.90;;;;;;5049285;28;20185;-79
2023/06/16 00:08:44;;;;;;;0.10;0.10;;;17.70;99.90;;;;;;5047594;28;20266;-80
2023/06/16 00:11:10;;;;;;;0.10;0.10;;;17.70;99.90;;;;;;5046934;28;20190;-80
2023/06/16 00:13:36;;;;;;;0.10;0.10;;;17.70;99.90;;;;;;5049689;28;20195;-80
2023/06/16 00:16:01;;;;;;;0.10;0.10;;;17.80;99.90;;;;;;5047885;28;20178;-81
2023/06/16 00:18:28;;;;;;;0.10;0.10;;;17.90;99.90;;;;;;5049353;28;20212;-82
2023/06/16 00:20:54;;;;;;;0.10;0.10;;;18.00;99.90;;;;;;5047205;28;21054;-81
2023/06/16 00:23:20;;;;;;;0.10;0.10;;;18.00;99.90;;;;;;5047962;28;20209;-82
2023/06/16 00:25:47;;;;;;;0.10;0.10;;;18.10;99.90;;;;;;5047651;28;20181;-82
2023/06/16 00:28:12;;;;;;;0.10;0.10;;;18.10;99.90;;;;;;5046754;28;20554;-82
2023/06/16 00:30:38;;;;;;;0.10;0.10;;;18.20;99.90;;;;;;5046604;28;20188;-82
2023/06/16 00:33:05;;;;;;;0.10;0.10;;;18.20;99.90;;;;;;5049284;28;20189;-82
2023/06/16 00:35:31;;;;;;;0.10;0.10;;;18.10;99.90;;;;;;5047785;28;20185;-82
2023/06/16 00:37:56;;;;;;;0.10;0.10;;;18.00;99.90;;;;;;5048644;28;20205;-82
2023/06/16 00:40:22;;;;;;;0.10;0.10;;;18.00;99.90;;;;;;5047666;28;20280;-82
2023/06/16 00:42:47;;;;;;;0.10;0.10;;;18.00;99.90;;;;;;5047942;28;20206;-82
2023/06/16 00:45:13;;;;;;;0.10;0.10;;;18.10;99.90;;;;;;5049229;28;20176;-82
2023/06/16 00:47:39;;;;;;;0.10;0.10;;;18.20;99.90;;;;;;5048885;28;20181;-82
2023/06/16 00:50:07;;;;;;;0.10;0.10;;;18.20;99.90;;;;;;5047900;28;20185;-82
2023/06/16 00:52:37;;;;;;;0.10;0.10;;;18.30;99.90;;;;;;5047449;28;20199;-82
2023/06/16 00:55:02;;;;;;;0.10;0.10;;;18.20;99.90;;;;;;5047818;28;20181;-82
2023/06/16 00:57:29;;;;;;;0.10;0.10;;;18.10;99.90;;;;;;5048963;28;20797;-82
2023/06/16 00:59:55;;;;;;;0.10;0.10;;;18.00;99.90;;;;;;5047869;28;20236;-81
2023/06/16 01:02:21;;;;;;;0.10;0.10;;;18.00;99.90;;;;;;5047496;28;20205;-82
2023/06/16 01:04:48;;;;;;;0.10;0.10;;;17.90;99.90;;;;;;5047295;28;20191;-82
2023/06/16 01:07:31;;;;;;;0.10;0.10;;;17.90;99.90;;;;;;5047134;28;20174;-82
2023/06/16 01:10:09;;;;;;;0.10;0.10;;;17.90;99.90;;;;;;5047008;28;20224;-82
2023/06/16 01:12:52;;;;;;;0.10;0.10;;;17.90;99.90;;;;;;5046815;28;20180;-82
2023/06/16 01:15:22;;;;;;;0.10;0.10;;;18.00;99.90;;;;;;5048411;28;20195;-82
2023/06/16 01:17:50;;;;;;;0.10;0.10;;;17.90;99.90;;;;;;5046969;28;20698;-82
2023/06/16 01:20:18;;;;;;;0.10;0.10;;;17.90;99.90;;;;;;5046929;28;20627;-81
2023/06/16 01:23:02;;;;;;;0.10;0.10;;;17.90;99.90;;;;;;5047347;28;20202;-82
2023/06/16 01:25:31;;;;;;;0.10;0.10;;;17.80;99.90;;;;;;5046832;28;20193;-82
2023/06/16 01:27:58;;;;;;;0.10;0.10;;;17.80;99.90;;;;;;5046689;28;20201;-82
2023/06/16 01:30:25;;;;;;;0.10;0.10;;;17.80;99.90;;;;;;5047742;28;20240;-82
2023/06/16 01:32:53;;;;;;;0.10;0.10;;;17.80;99.90;;;;;;5047509;28;20668;-82
2023/06/16 01:35:21;;;;;;;0.10;0.10;;;17.70;99.90;;;;;;5047703;28;20190;-82
2023/06/16 01:37:49;;;;;;;0.10;0.10;;;17.70;99.90;;;;;;5046284;28;20216;-82
2023/06/16 01:40:15;;;;;;;0.10;0.10;;;17.70;99.90;;;;;;5047536;28;20185;-82
2023/06/16 01:42:44;;;;;;;0.10;0.10;;;17.70;99.90;;;;;;5046323;28;20564;-82
2023/06/16 01:45:11;;;;;;;0.10;0.10;;;17.70;99.90;;;;;;5045778;28;20178;-82
2023/06/16 01:47:37;;;;;;;0.10;0.10;;;17.60;99.90;;;;;;5045882;28;20495;-82
2023/06/16 01:50:03;;;;;;;0.10;0.10;;;17.60;99.90;;;;;;5046234;28;20204;-82
2023/06/16 01:52:28;;;;;;;0.10;0.10;;;17.60;99.90;;;;;;5046401;28;20178;-82
2023/06/16 01:54:54;;;;;;;0.10;0.10;;;17.60;99.90;;;;;;5046236;28;20194;-82
2023/06/16 01:57:21;;;;;;;0.10;0.10;;;17.50;99.90;;;;;;5046347;28;20189;-82
2023/06/16 01:59:54;;;;;;;0.10;0.10;;;17.60;99.90;;;;;;5045764;28;20198;-81
2023/06/16 02:02:23;;;;;;;0.10;0.10;;;17.60;99.90;;;;;;5045724;28;20198;-81
2023/06/16 02:04:51;;;;;;;0.10;0.10;;;17.60;99.90;;;;;;5045816;28;20190;-82
2023/06/16 02:07:24;;;;;;;0.10;0.10;;;17.60;99.90;;;;;;5044954;28;20199;-81
2023/06/16 02:09:50;;;;;;;0.10;0.10;;;17.60;99.90;;;;;;5045660;28;20203;-82
2023/06/16 02:12:16;;;;;;;0.10;0.10;;;17.60;99.90;;;;;;5044543;28;20187;-82
2023/06/16 02:14:44;;;;;;;0.10;0.10;;;17.50;99.90;;;;;;5045646;28;20239;-82
2023/06/16 02:17:09;;;;;;;0.10;0.10;;;17.40;99.90;;;;;;5047247;28;20184;-82
2023/06/16 02:19:38;;;;;;;0.10;0.10;;;17.40;99.90;;;;;;5046998;28;20255;-81
2023/06/16 02:22:04;;;;;;;0.10;0.10;;;17.30;99.90;;;;;;5045617;28;20197;-82
2023/06/16 02:24:31;;;;;;;0.10;0.10;;;17.30;99.90;;;;;;5044682;28;20664;-82
2023/06/16 02:26:56;;;;;;;0.10;0.10;;;17.30;99.90;;;;;;5045283;28;20173;-82
2023/06/16 02:29:22;;;;;;;0.10;0.10;;;17.30;99.90;;;;;;5045291;28;20208;-82
2023/06/16 02:31:49;;;;;;;0.10;0.10;;;17.20;99.90;;;;;;5044614;28;20170;-82
2023/06/16 02:34:15;;;;;;;0.10;0.10;;;17.10;99.90;;;;;;5044539;28;20181;-82
2023/06/16 02:36:40;;;;;;;0.10;0.10;;;17.10;99.90;;;;;;5045019;28;20178;-81
2023/06/16 02:39:07;;;;;;;0.10;0.10;;;16.90;99.90;;;;;;5045286;28;20277;-82
2023/06/16 02:41:33;;;;;;;0.10;0.10;;;16.90;99.90;;;;;;5044462;28;20547;-82
2023/06/16 02:43:59;;;;;;;0.10;0.10;;;16.80;99.90;;;;;;5045083;28;20201;-82
2023/06/16 02:46:25;;;;;;;0.10;0.10;;;16.80;99.90;;;;;;5045286;28;20182;-82
2023/06/16 02:48:50;;;;;;;0.10;0.10;;;16.70;99.90;;;;;;5044858;28;20204;-82
2023/06/16 02:51:16;;;;;;;0.10;0.10;;;16.70;99.90;;;;;;5044605;28;20224;-82
2023/06/16 02:53:45;;;;;;;0.10;0.10;;;16.60;99.90;;;;;;5046386;28;20186;-82
2023/06/16 02:56:11;;;;;;;0.10;0.10;;;16.60;99.90;;;;;;5044785;28;20643;-82
2023/06/16 02:58:37;;;;;;;0.10;0.10;;;16.50;99.90;;;;;;5044550;28;20255;-82
2023/06/16 03:01:04;;;;;;;0.10;0.10;;;16.40;99.90;;;;;;5043665;28;20178;-82
2023/06/16 03:03:31;;;;;;;0.10;0.10;;;16.40;99.90;;;;;;5044656;28;20616;-82
2023/06/16 03:05:58;;;;;;;0.10;0.10;;;16.40;99.90;;;;;;5045718;28;20189;-82
2023/06/16 03:08:24;;;;;;;0.10;0.10;;;16.40;99.90;;;;;;5044573;28;20208;-82
2023/06/16 03:10:51;;;;;;;0.10;0.10;;;16.50;99.90;;;;;;5044376;28;20197;-82
2023/06/16 03:13:17;;;;;;;0.00;0.00;;;16.50;99.90;;;;;;5043893;28;20189;-82
2023/06/16 03:15:43;;;;;;;0.10;0.10;;;16.50;99.90;;;;;;5043895;28;20189;-82
2023/06/16 03:18:09;;;;;;;0.10;0.10;;;16.60;99.90;;;;;;5044324;28;20288;-81
2023/06/16 03:20:35;;;;;;;0.10;0.10;;;16.50;99.90;;;;;;5044758;28;20263;-82
2023/06/16 03:23:01;;;;;;;0.10;0.10;;;16.60;99.90;;;;;;5044592;28;20738;-81
2023/06/16 03:25:28;;;;;;;0.10;0.10;;;16.60;99.90;;;;;;5046194;28;20182;-82
2023/06/16 03:27:53;;;;;;;0.10;0.10;;;16.60;99.90;;;;;;5046132;28;20303;-82
2023/06/16 03:30:19;;;;;;;0.10;0.10;;;16.60;99.90;;;;;;5044321;28;20220;-81
2023/06/16 03:32:45;;;;;;;0.10;0.10;;;16.60;99.90;;;;;;5045950;28;20181;-82
2023/06/16 03:35:12;;;;;;;0.10;0.10;;;16.60;99.90;;;;;;5048040;28;20192;-82
2023/06/16 03:37:38;;;;;;;0.10;0.10;;;16.80;99.90;;;;;;5047958;28;20239;-81
2023/06/16 03:40:06;;;;;;;0.10;0.10;;;17.10;99.90;;;;;;5050885;28;20174;-81
2023/06/16 03:42:35;;;;;;;0.10;0.10;;;17.40;99.90;;;;;;5048000;28;20258;-82
2023/06/16 03:45:03;;;;;;;0.10;0.10;;;17.70;99.90;;;;;;5048182;28;20182;-82
2023/06/16 03:47:29;;;;;;;0.10;0.10;;;18.10;99.90;;;;;;5048153;28;20180;-81
2023/06/16 03:49:54;;;;;;;0.00;0.00;;;18.40;99.90;;;;;;5048036;28;20177;-82
2023/06/16 03:52:21;;;;;;;0.10;0.10;;;18.10;99.90;;;;;;5053499;28;20899;-81
2023/06/16 03:54:46;;;;;;;0.10;0.10;;;17.80;99.90;;;;;;5051090;28;20280;-82
2023/06/16 03:57:13;;;;;;;0.10;0.10;;;17.70;99.90;;;;;;5052770;28;20182;-82
2023/06/16 03:59:38;;;;;;;0.10;0.10;;;17.60;99.90;;;;;;5050549;28;20197;-81
2023/06/16 04:02:07;;;;;;;0.10;0.10;;;18.00;99.90;;;;;;5051030;28;20277;-82
2023/06/16 04:04:33;;;;;;;0.10;0.10;;;17.90;99.90;;;;;;5050156;28;20173;-82
2023/06/16 04:07:00;;;;;;;0.10;0.10;;;17.80;99.90;;;;;;5048317;28;20174;-82
2023/06/16 04:09:26;;;;;;;0.10;0.10;;;17.80;99.90;;;;;;5049273;28;20289;-82
2023/06/16 04:11:52;;;;;;;0.10;0.10;;;18.50;99.90;;;;;;5048648;28;20184;-82
2023/06/16 04:14:18;;;;;;;0.10;0.10;;;19.80;99.90;;;;;;5048819;28;20178;-82
2023/06/16 04:16:43;;;;;;;0.10;0.10;;;20.90;99.90;;;;;;5056932;28;20175;-82
2023/06/16 04:19:10;;;;;;;0.10;0.10;;;21.60;99.90;;;;;;5047510;28;20278;-82
2023/06/16 04:21:36;;;;;;;0.10;0.10;;;22.30;99.90;;;;;;5047614;28;20190;-82
2023/06/16 04:24:02;;;;;;;0.10;0.10;;;22.70;99.90;;;;;;5056516;28;20211;-82
2023/06/16 04:26:28;;;;;;;0.10;0.10;;;22.80;99.90;;;;;;5046993;28;20189;-82
2023/06/16 04:28:55;;;;;;;0.10;0.10;;;22.50;99.90;;;;;;5047457;28;20207;-81
2023/06/16 04:31:22;;;;;;;0.10;0.10;;;21.90;99.90;;;;;;5047628;28;20629;-82
2023/06/16 04:33:48;;;;;;;0.10;0.10;;;21.40;99.90;;;;;;5047940;28;20200;-82
2023/06/16 04:36:17;;;;;;;0.10;0.10;;;21.00;99.90;;;;;;5047528;28;20650;-82
2023/06/16 04:38:43;;;;;;;0.10;0.10;;;20.80;99.90;;;;;;5046649;28;20296;-81
2023/06/16 04:41:08;;;;;;;0.10;0.10;;;20.60;99.90;;;;;;5048819;28;20228;-82
2023/06/16 04:43:34;;;;;;;0.10;0.10;;;20.50;99.90;;;;;;5048300;28;20959;-82
2023/06/16 04:46:00;;;;;;;0.10;0.10;;;20.40;99.90;;;;;;5047122;28;20178;-82
2023/06/16 04:48:25;;;;;;;0.10;0.10;;;20.30;99.90;;;;;;5047646;28;20198;-79
2023/06/16 04:50:53;;;;;;;0.10;0.10;;;20.00;99.90;;;;;;5046628;28;20580;-80
2023/06/16 04:53:19;;;;;;;0.10;0.10;;;19.90;99.90;;;;;;5046868;28;20193;-80
2023/06/16 04:55:44;;;;;;;0.10;0.10;;;19.80;99.90;;;;;;5046900;28;20274;-80
2023/06/16 04:58:11;;;;;;;0.10;0.10;;;19.70;99.90;;;;;;5048158;28;20296;-80
2023/06/16 05:00:36;;;;;;;0.10;0.10;;;19.50;99.90;;;;;;5050223;28;20660;-80
2023/06/16 05:03:02;;;;;;;0.10;0.10;;;19.40;99.90;;;;;;5050217;28;20211;-79
2023/06/16 05:05:27;;;;;;;0.10;0.10;;;19.30;99.90;;;;;;5049597;28;20213;-79
2023/06/16 05:07:53;;;;;;;0.10;0.10;;;19.20;99.90;;;;;;5049607;28;21028;-80
2023/06/16 05:10:18;;;;;;;0.10;0.10;;;19.10;99.90;;;;;;5050667;28;20647;-79
2023/06/16 05:12:44;;;;;;;0.10;0.10;;;19.10;99.90;;;;;;5048071;28;20184;-80
2023/06/16 05:15:10;;;;;;;0.10;0.10;;;19.20;99.90;;;;;;5048622;28;20193;-80
2023/06/16 05:17:37;;;;;;;0.10;0.10;;;19.20;99.90;;;;;;5047915;28;20665;-79
2023/06/16 05:20:03;;;;;;;0.10;0.10;;;19.30;99.90;;;;;;5047659;28;20182;-80
2023/06/16 05:22:28;;;;;;;0.10;0.10;;;19.30;99.90;;;;;;5047895;28;20213;-80
2023/06/16 05:24:55;;;;;;;0.10;0.10;;;19.30;99.90;;;;;;5047981;28;20186;-80
2023/06/16 05:27:23;;;;;;;0.10;0.10;;;19.40;99.90;;;;;;5049010;28;20255;-82
2023/06/16 05:29:52;;;;;;;0.10;0.10;;;19.40;99.90;;;;;;5049268;28;20248;-80
2023/06/16 05:32:19;;;;;;;0.10;0.10;;;19.50;99.90;;;;;;5047112;28;20185;-80
2023/06/16 05:34:46;;;;;;;0.10;0.10;;;19.60;99.90;;;;;;5046621;28;20255;-80
2023/06/16 05:37:15;;;;;;;0.10;0.10;;;19.70;99.90;;;;;;5048665;28;20185;-80
2023/06/16 05:39:45;;;;;;;0.10;0.10;;;19.80;99.90;;;;;;5046572;28;20206;-80
2023/06/16 05:42:14;;;;;;;0.10;0.10;;;19.80;99.90;;;;;;5048289;28;20214;-80
2023/06/16 05:44:41;;;;;;;0.10;0.10;;;19.80;99.90;;;;;;5047973;28;20180;-80
2023/06/16 05:47:07;;;;;;;0.10;0.10;;;19.90;99.90;;;;;;5046852;28;20176;-80
2023/06/16 05:49:33;;;;;;;0.10;0.10;;;20.10;99.90;;;;;;5045273;28;20201;-80
2023/06/16 05:51:59;;;;;;;0.10;0.10;;;20.10;99.90;;;;;;5047669;28;20190;-80
2023/06/16 05:54:24;;;;;;;0.10;0.10;;;20.20;99.90;;;;;;5046059;28;20182;-80
2023/06/16 05:56:50;;;;;;;0.10;0.10;;;20.10;99.90;;;;;;5045939;28;20180;-80
2023/06/16 05:59:16;;;;;;;0.10;0.10;;;20.10;99.90;;;;;;5045901;28;20579;-80
2023/06/16 06:01:41;;;;;;;0.10;0.10;;;20.10;99.90;;;;;;5045146;28;20267;-80
2023/06/16 06:04:11;;;;;;;0.10;0.10;;;20.20;99.90;;;;;;5045887;28;20208;-80
2023/06/16 06:06:38;;;;;;;0.10;0.10;;;20.20;99.90;;;;;;5047467;28;20213;-80
2023/06/16 06:09:04;;;;;;;0.10;0.10;;;20.40;99.90;;;;;;5049073;28;20190;-80
2023/06/16 06:11:30;;;;;;;0.10;0.10;;;20.60;99.90;;;;;;5048703;28;20189;-79
2023/06/16 06:13:56;;;;;;;0.10;0.10;;;20.80;99.90;;;;;;5050230;28;20185;-79
2023/06/16 06:16:22;;;;;;;0.10;0.10;;;20.90;99.90;;;;;;5047610;28;20190;-80
2023/06/16 06:18:48;;;;;;;0.10;0.10;;;21.10;99.90;;;;;;5047413;28;20653;-79
2023/06/16 06:21:14;;;;;;;0.10;0.10;;;21.20;99.90;;;;;;5047268;28;20178;-80
2023/06/16 06:23:39;;;;;;;0.10;0.10;;;21.30;99.90;;;;;;5047032;28;20198;-80
2023/06/16 06:26:05;;;;;;;0.10;0.10;;;21.50;99.90;;;;;;5046670;28;20181;-80
2023/06/16 06:28:30;;;;;;;0.10;0.10;;;21.60;99.90;;;;;;5046362;28;20474;-80
2023/06/16 06:30:56;;;;;;;0.10;0.10;;;21.70;99.90;;;;;;5046103;28;20631;-79
2023/06/16 06:33:22;;;;;;;0.10;0.10;;;21.80;99.90;;;;;;5048027;28;20197;-80
2023/06/16 06:35:47;;;;;;;0.10;0.10;;;21.90;99.90;;;;;;5045770;28;20235;-80
2023/06/16 06:38:13;;;;;;;0.10;0.10;;;22.00;99.90;;;;;;5046222;28;20753;-80
2023/06/16 06:40:39;;;;;;;0.10;0.10;;;22.00;99.90;;;;;;5046705;28;20185;-80
2023/06/16 06:43:05;;;;;;;0.10;0.10;;;22.10;99.90;;;;;;5047108;28;20197;-80
2023/06/16 06:45:31;;;;;;;0.10;0.10;;;22.00;99.90;;;;;;5046620;28;20176;-80
2023/06/16 06:47:56;;;;;;;0.10;0.10;;;22.10;99.90;;;;;;5046255;28;20198;-80
2023/06/16 06:50:22;;;;;;;0.10;0.10;;;22.30;99.90;;;;;;5045182;28;20184;-80
2023/06/16 06:52:47;;;;;;;0.10;0.10;;;22.40;99.90;;;;;;5045909;28;20683;-80
2023/06/16 06:55:13;;;;;;;0.10;0.10;;;22.50;99.90;;;;;;5044752;28;20192;-80
2023/06/16 06:57:40;;;;;;;0.10;0.10;;;22.50;99.90;;;;;;5044859;28;20214;-79
2023/06/16 07:00:07;;;;;;;0.10;0.10;;;22.60;99.90;;;;;;5045400;28;20181;-80
2023/06/16 07:02:33;;;;;;;0.10;0.10;;;22.60;99.90;;;;;;5044549;28;20267;-80
2023/06/16 07:04:59;;;;;;;0.10;0.10;;;22.80;99.90;;;;;;5044891;28;21186;-80
2023/06/16 07:07:24;;;;;;;0.10;0.10;;;22.90;99.90;;;;;;5044584;28;20276;-80
2023/06/16 07:09:50;;;;;;;0.10;0.10;;;23.10;99.90;;;;;;5046097;28;20276;-80
2023/06/16 07:12:16;;;;;;;0.10;0.10;;;23.20;99.90;;;;;;5044562;28;20177;-82
2023/06/16 07:14:45;;;;;;;0.10;0.10;;;23.30;99.90;;;;;;5045020;28;20205;-83
2023/06/16 07:17:10;;;;;;;0.10;0.10;;;23.30;99.90;;;;;;5045526;28;20177;-80
2023/06/16 07:19:36;;;;;;;0.10;0.10;;;23.30;99.90;;;;;;5044409;28;20205;-80
2023/06/16 07:22:02;;;;;;;0.10;0.10;;;23.20;99.90;;;;;;5045499;28;20884;-80
2023/06/16 07:24:27;;;;;;;0.10;0.10;;;22.30;99.90;;;;;;5049409;28;20194;-80
2023/06/16 07:26:53;;;;;;;0.10;0.10;;;22.50;99.90;;;;;;5048714;28;20177;-80
2023/06/16 07:29:19;;;;;;;0.10;0.10;;;23.10;99.90;;;;;;5048830;28;20193;-80
2023/06/16 07:31:45;;;;;;;0.10;0.10;;;23.50;99.90;;;;;;5046409;28;20227;-80
2023/06/16 07:34:10;;;;;;;0.10;0.10;;;23.70;99.90;;;;;;5048146;28;20182;-80
2023/06/16 07:36:38;;;;;;;0.10;0.10;;;23.90;99.90;;;;;;5046131;28;20500;-80
2023/06/16 07:39:03;;;;;;;0.10;0.10;;;24.00;99.90;;;;;;5047683;28;20252;-79
2023/06/16 07:41:29;;;;;;;0.10;0.10;;;24.10;99.90;;;;;;5046303;28;20803;-80
2023/06/16 07:43:54;;;;;;;0.10;0.10;;;24.40;99.90;;;;;;5046605;28;20540;-80
2023/06/16 07:46:20;;;;;;;0.10;0.10;;;24.50;99.90;;;;;;5047199;28;20575;-80
2023/06/16 07:48:46;;;;;;;0.10;0.10;;;24.40;99.90;;;;;;5045253;28;20202;-80
2023/06/16 07:51:12;;;;;;;0.10;0.10;;;24.60;99.90;;;;;;5045560;28;20197;-80
2023/06/16 07:53:39;;;;;;;0.10;0.10;;;24.50;99.90;;;;;;5045128;28;20194;-82
2023/06/16 07:56:06;;;;;;;0.10;0.10;;;24.80;99.90;;;;;;5046218;28;20185;-83
2023/06/16 07:58:31;;;;;;;0.10;0.10;;;24.80;99.90;;;;;;5046131;28;20209;-83
2023/06/16 08:00:57;;;;;;;0.10;0.10;;;24.80;99.90;;;;;;5044236;28;20181;-82
2023/06/16 08:03:23;;;;;;;0.10;0.10;;;24.80;99.90;;;;;;5044388;28;20774;-83
2023/06/16 08:05:48;;;;;;;0.10;0.10;;;24.90;99.90;;;;;;5045208;28;20186;-83
2023/06/16 08:08:17;;;;;;;0.10;0.10;;;25.10;99.90;;;;;;5044658;28;20331;-80
2023/06/16 08:10:42;;;;;;;0.10;0.10;;;25.30;99.90;;;;;;5044260;28;20181;-81
2023/06/16 08:13:08;;;;;;;0.10;0.10;;;24.90;99.90;;;;;;5046135;28;20182;-83
2023/06/16 08:15:33;;;;;;;0.10;0.10;;;24.70;99.90;;;;;;5045776;28;20650;-83
2023/06/16 08:17:59;;;;;;;0.10;0.10;;;25.10;99.90;;;;;;5044629;28;20206;-83
2023/06/16 08:20:25;;;;;;;0.10;0.10;;;25.50;99.90;;;;;;5047762;28;20181;-80
2023/06/16 08:22:51;;;;;;;0.10;0.10;;;25.70;99.90;;;;;;5048903;28;20193;-80
2023/06/16 08:25:17;;;;;;;0.10;0.10;;;25.90;99.90;;;;;;5048143;28;20647;-80
2023/06/16 08:27:42;;;;;;;0.10;0.10;;;25.50;99.90;;;;;;5048056;28;20243;-80
2023/06/16 08:30:09;;;;;;;0.10;0.10;;;25.40;99.90;;;;;;5049979;28;20180;-80
2023/06/16 08:32:35;;;;;;;0.17;0.17;;;25.10;99.90;;;;;;5049052;28;20174;-81
2023/06/16 08:35:00;;;;;;;0.10;0.10;;;25.30;99.90;;;;;;5047546;28;20177;-80
2023/06/16 08:37:27;;;;;;;0.10;0.10;;;25.40;99.90;;;;;;5048270;28;20197;-81
2023/06/16 08:39:52;;;;;;;0.10;0.10;;;25.40;99.90;;;;;;5049271;28;20208;-80
2023/06/16 08:42:19;;;;;;;0.10;0.10;;;25.70;99.90;;;;;;5046985;28;20202;-81
2023/06/16 08:44:45;;;;;;;0.10;0.10;;;25.50;99.90;;;;;;5050607;28;20236;-80
2023/06/16 08:47:11;;;;;;;0.10;0.10;;;25.50;99.90;;;;;;5051487;28;20189;-81
2023/06/16 08:49:39;;;;;;;0.10;0.10;;;24.70;99.90;;;;;;5052233;28;20611;-81
2023/06/16 08:52:08;;;;;;;0.10;0.10;;;24.60;99.90;;;;;;5048839;28;20208;-81
2023/06/16 08:54:46;;;;;;;0.10;0.10;;;24.80;99.90;;;;;;5049991;28;20243;-80
2023/06/16 08:57:14;;;;;;;0.10;0.10;;;25.30;99.90;;;;;;5048938;28;20220;-81
2023/06/16 08:59:44;;;;;;;0.10;0.10;;;25.00;99.90;;;;;;5049597;28;20613;-81
2023/06/16 09:02:11;;;;;;;0.10;0.10;;;25.40;99.90;;;;;;5048323;28;20174;-80
2023/06/16 09:04:37;;;;;;;0.10;0.10;;;25.60;99.90;;;;;;5050162;28;20194;-81
2023/06/16 09:07:03;;;;;;;0.10;0.10;;;25.80;99.90;;;;;;5047890;28;20177;-81
2023/06/16 09:09:28;;;;;;;0.10;0.10;;;25.90;99.90;;;;;;5049808;28;20217;-80
2023/06/16 09:12:08;;;;;;;0.10;0.10;;;25.60;99.90;;;;;;5047557;28;20181;-80
2023/06/16 09:14:37;;;;;;;0.10;0.10;;;25.80;99.90;;;;;;5047829;28;20173;-81
2023/06/16 09:17:08;;;;;;;0.10;0.10;;;25.80;99.90;;;;;;5047288;28;20184;-81
2023/06/16 09:19:47;;;;;;;0.10;0.10;;;25.80;99.90;;;;;;5049773;28;20221;-81
2023/06/16 09:22:16;;;;;;;0.10;0.10;;;26.00;99.90;;;;;;5047348;28;20542;-81
2023/06/16 09:24:42;;;;;;;0.15;0.15;;;26.10;99.90;;;;;;5047338;28;20624;-81
2023/06/16 09:27:08;;;;;;;0.10;0.10;;;26.10;99.90;;;;;;5055526;28;20185;-80
2023/06/16 09:29:33;;;;;;;0.10;0.10;;;25.80;99.90;;;;;;5047712;28;20698;-81
2023/06/16 09:32:08;;;;;;;0.10;0.10;;;25.80;99.90;;;;;;5047556;28;20186;-80
2023/06/16 09:34:35;;;;;;;0.10;0.10;;;26.30;99.90;;;;;;5046242;28;20192;-81
2023/06/16 09:37:03;;;;;;;0.10;0.10;;;26.20;99.90;;;;;;5048341;28;20265;-81
2023/06/16 09:39:29;;;;;;;0.10;0.10;;;26.40;99.90;;;;;;5046815;28;20233;-80
2023/06/16 09:41:56;;;;;;;0.10;0.10;;;26.20;99.90;;;;;;5047123;28;20185;-81
2023/06/16 09:44:23;;;;;;;0.10;0.10;;;26.20;99.90;;;;;;5047431;28;20212;-81
2023/06/16 09:46:52;;;;;;;0.10;0.10;;;25.60;99.90;;;;;;5046141;28;20174;-81
2023/06/16 09:49:22;;;;;;;0.10;0.10;;;25.80;99.90;;;;;;5045302;28;20578;-80
2023/06/16 09:51:55;;;;;;;0.10;0.10;;;25.80;99.90;;;;;;5046492;28;20181;-81
2023/06/16 09:54:21;;;;;;;0.10;0.10;;;26.00;99.90;;;;;;5046079;28;20197;-81
2023/06/16 09:56:48;;;;;;;0.10;0.10;;;26.30;99.90;;;;;;5046717;28;20185;-81
2023/06/16 09:59:15;;;;;;;0.10;0.10;;;26.60;99.90;;;;;;5045811;28;20570;-80
2023/06/16 10:01:43;;;;;;;0.10;0.10;;;26.80;99.90;;;;;;5044971;28;20186;-81
2023/06/16 10:04:10;;;;;;;0.10;0.10;;;26.90;99.90;;;;;;5045950;28;20201;-81
2023/06/16 10:06:47;;;;;;;0.10;0.10;;;27.00;99.90;;;;;;5045831;28;20720;-81
2023/06/16 10:09:20;;;;;;;0.10;0.10;;;27.20;99.90;;;;;;5047500;28;20198;-80
2023/06/16 10:11:48;;;;;;;0.10;0.10;;;27.10;99.90;;;;;;5048776;28;20214;-80
2023/06/16 10:14:16;;;;;;;0.10;0.10;;;27.00;99.90;;;;;;5048004;28;20185;-81
2023/06/16 10:16:44;;;;;;;0.10;0.10;;;27.10;99.90;;;;;;5048258;28;20181;-81
2023/06/16 10:19:11;;;;;;;0.10;0.10;;;27.20;99.90;;;;;;5047574;28;20201;-81
2023/06/16 10:21:37;;;;;;;0.10;0.10;;;27.30;99.90;;;;;;5048243;28;20185;-80
2023/06/16 10:24:03;;;;;;;0.10;0.10;;;27.60;99.90;;;;;;5048406;28;20193;-81
2023/06/16 10:26:29;;;;;;;0.10;0.10;;;27.80;99.90;;;;;;5048426;28;20178;-81
2023/06/16 10:28:55;;;;;;;0.10;0.10;;;27.60;99.90;;;;;;5047257;28;20267;-80
2023/06/16 10:31:23;;;;;;;0.10;0.10;;;27.60;99.90;;;;;;5048012;28;20170;-81
2023/06/16 10:33:56;;;;;;;0.10;0.10;;;27.00;99.90;;;;;;5046840;28;20182;-80
2023/06/16 10:36:23;;;;;;;0.10;0.10;;;26.60;99.90;;;;;;5047316;28;20626;-80
2023/06/16 10:38:59;;;;;;;0.10;0.10;;;26.40;99.90;;;;;;5046755;28;20201;-81
2023/06/16 10:41:29;;;;;;;0.10;0.10;;;26.70;99.90;;;;;;5046813;28;21157;-81
2023/06/16 10:43:54;;;;;;;0.10;0.10;;;26.00;99.90;;;;;;5045154;28;20284;-80
2023/06/16 10:46:21;;;;;;;0.10;0.10;;;26.20;99.90;;;;;;5045866;28;20292;-81
2023/06/16 10:49:09;;;;;;;0.22;0.22;;;26.40;99.90;;;;;;5046088;28;21017;-81
2023/06/16 10:51:50;;;;;;;0.10;0.10;;;26.20;99.90;;;;;;5045735;28;20173;-81
2023/06/16 10:54:36;;;;;;;0.10;0.10;;;26.80;99.90;;;;;;5045833;28;20181;-81
2023/06/16 10:57:03;;;;;;;0.10;0.10;;;27.00;99.90;;;;;;5044542;28;20192;-81
2023/06/16 10:59:29;;;;;;;0.10;0.10;;;27.40;99.90;;;;;;5045220;28;20201;-80
2023/06/16 11:01:57;;;;;;;0.10;0.10;;;27.70;99.90;;;;;;5043378;28;20188;-80
2023/06/16 11:04:23;;;;;;;0.10;0.10;;;27.80;99.90;;;;;;5045554;28;20206;-81
2023/06/16 11:07:08;;;;;;;0.10;0.10;;;28.00;99.90;;;;;;5045968;28;20189;-80
2023/06/16 11:09:35;;;;;;;0.10;0.10;;;26.80;99.90;;;;;;5043635;28;20232;-81
2023/06/16 11:12:02;;;;;;;0.10;0.10;;;26.80;99.90;;;;;;5045303;28;20184;-81
2023/06/16 11:14:27;;;;;;;0.10;0.10;;;27.20;99.90;;;;;;5044598;28;20196;-81
2023/06/16 11:16:54;;;;;;;0.10;0.10;;;26.50;99.90;;;;;;5043865;28;20177;-81
2023/06/16 11:19:20;;;;;;;0.10;0.10;;;26.70;99.90;;;;;;5045545;28;20327;-80
2023/06/16 11:21:46;;;;;;;0.10;0.10;;;27.10;99.90;;;;;;5044089;28;20267;-81
2023/06/16 11:24:13;;;;;;;0.10;0.10;;;27.10;99.90;;;;;;5043986;28;20210;-81
2023/06/16 11:26:39;;;;;;;0.10;0.10;;;26.80;99.90;;;;;;5044348;28;20181;-80
2023/06/16 11:29:06;;;;;;;0.10;0.10;;;27.40;99.90;;;;;;5044201;28;20201;-81
2023/06/16 11:31:35;;;;;;;0.10;0.10;;;27.40;99.90;;;;;;5043953;28;20188;-81
2023/06/16 11:34:01;;;;;;;0.10;0.10;;;27.60;99.90;;;;;;5044924;28;20180;-81
2023/06/16 11:36:27;;;;;;;0.10;0.10;;;28.20;99.90;;;;;;5046802;28;20272;-80
2023/06/16 11:38:57;;;;;;;0.10;0.10;;;28.70;99.90;;;;;;5046359;28;20308;-81
2023/06/16 11:41:27;;;;;;;0.10;0.10;;;28.70;99.90;;;;;;5047591;28;20185;-81
2023/06/16 11:43:53;;;;;;;0.10;0.10;;;27.40;99.90;;;;;;5048386;28;20194;-80
2023/06/16 11:46:24;;;;;;;0.10;0.10;;;27.20;99.90;;;;;;5045819;28;20277;-80
2023/06/16 11:48:51;;;;;;;0.10;0.10;;;27.70;99.90;;;;;;5046076;28;20271;-81
2023/06/16 11:51:17;;;;;;;0.10;0.10;;;27.90;99.90;;;;;;5044885;28;20242;-80
2023/06/16 11:53:43;;;;;;;0.10;0.10;;;28.20;99.90;;;;;;5048710;28;20200;-80
2023/06/16 11:56:13;;;;;;;0.10;0.10;;;28.40;99.90;;;;;;5049595;28;20185;-81
2023/06/16 11:58:42;;;;;;;0.10;0.10;;;28.10;99.90;;;;;;5049927;28;20225;-81
2023/06/16 12:01:08;;;;;;;0.10;0.10;;;28.30;99.90;;;;;;5048852;28;20265;-81
2023/06/16 12:03:37;;;;;;;0.10;0.10;;;28.00;99.90;;;;;;5056931;28;20252;-81
2023/06/16 12:06:05;;;;;;;0.10;0.10;;;28.00;99.90;;;;;;5050168;28;21227;-81
2023/06/16 12:08:49;;;;;;;0.10;0.10;;;27.80;99.90;;;;;;5049370;28;20198;-81
2023/06/16 12:11:26;;;;;;;0.10;0.10;;;28.20;99.90;;;;;;5049182;28;20263;-81
2023/06/16 12:13:53;;;;;;;0.10;0.10;;;28.10;99.90;;;;;;5050238;28;20184;-81
2023/06/16 12:16:19;;;;;;;0.10;0.10;;;28.70;99.90;;;;;;5048496;28;20848;-81
2023/06/16 12:18:47;;;;;;;0.10;0.10;;;28.20;99.90;;;;;;5049268;28;20212;-81
2023/06/16 12:21:25;;;;;;;0.10;0.10;;;27.50;99.90;;;;;;5056152;28;20184;-81
2023/06/16 12:23:58;;;;;;;0.10;0.10;;;27.40;99.90;;;;;;5048194;28;20297;-81
2023/06/16 12:26:39;;;;;;;0.10;0.10;;;27.00;99.90;;;;;;5050180;28;20212;-81
2023/06/16 12:29:10;;;;;;;0.10;0.10;;;27.20;99.90;;;;;;5048022;28;20221;-81
2023/06/16 12:31:36;;;;;;;0.10;0.10;;;26.70;99.90;;;;;;5047220;28;20184;-81
2023/06/16 12:34:02;;;;;;;0.10;0.10;;;27.30;99.90;;;;;;5047337;28;20647;-81
2023/06/16 12:36:28;;;;;;;0.10;0.10;;;28.00;99.90;;;;;;5049925;28;20196;-81
2023/06/16 12:38:55;;;;;;;0.10;0.10;;;27.70;99.90;;;;;;5049620;28;20206;-81
2023/06/16 12:41:21;;;;;;;0.10;0.10;;;27.60;99.90;;;;;;5047630;28;20189;-81
2023/06/16 12:43:51;;;;;;;0.10;0.10;;;27.30;99.90;;;;;;5047609;28;20206;-81
2023/06/16 12:46:18;;;;;;;0.10;0.10;;;27.00;99.90;;;;;;5047718;28;20655;-81
2023/06/16 12:48:44;;;;;;;0.10;0.10;;;27.10;99.90;;;;;;5046512;28;20280;-80